sensor_id;sensor_type;location;lat;lon;timestamp;P1;durP1;ratioP1;P2;durP2;ratioP2
27863;SDS011;15980;51.092;13.916;2023-05-29T00:07:15;5.82;;;2.97;;
27863;SDS011;15980;51.092;13.916;2023-05-29T00:17:16;11.40;;;3.25;;
27863;SDS011;15980;51.092;13.916;2023-05-29T00:27:16;5.40;;;2.88;;
27863;SDS011;15980;51.092;13.916;2023-05-29T00:37:17;7.20;;;3.53;;
27863;SDS011;15980;51.092;13.916;2023-05-29T00:47:17;9.40;;;3.58;;
27863;SDS011;15980;51.092;13.916;2023-05-29T00:57:17;7.70;;;3.60;;
27863;SDS011;15980;51.092;13.916;2023-05-29T01:07:18;6.10;;;3.17;;
27863;SDS011;15980;51.092;13.916;2023-05-29T01:27:30;8.17;;;4.37;;
27863;SDS011;15980;51.092;13.916;2023-05-29T01:37:32;13.00;;;4.10;;
27863;SDS011;15980;51.092;13.916;2023-05-29T01:47:32;6.07;;;3.47;;
27863;SDS011;15980;51.092;13.916;2023-05-29T01:57:34;8.02;;;3.92;;
27863;SDS011;15980;51.092;13.916;2023-05-29T02:07:35;8.98;;;3.65;;
27863;SDS011;15980;51.092;13.916;2023-05-29T02:17:36;8.43;;;3.67;;
27863;SDS011;15980;51.092;13.916;2023-05-29T02:27:36;10.05;;;3.95;;
27863;SDS011;15980;51.092;13.916;2023-05-29T02:37:36;14.15;;;4.22;;
27863;SDS011;15980;51.092;13.916;2023-05-29T02:47:37;6.97;;;3.83;;
27863;SDS011;15980;51.092;13.916;2023-05-29T02:57:37;9.55;;;4.07;;
27863;SDS011;15980;51.092;13.916;2023-05-29T03:07:38;7.53;;;3.90;;
27863;SDS011;15980;51.092;13.916;2023-05-29T03:17:38;12.98;;;3.85;;
27863;SDS011;15980;51.092;13.916;2023-05-29T03:27:38;7.63;;;3.90;;
27863;SDS011;15980;51.092;13.916;2023-05-29T03:37:39;10.68;;;4.72;;
27863;SDS011;15980;51.092;13.916;2023-05-29T03:47:39;8.95;;;3.95;;
27863;SDS011;15980;51.092;13.916;2023-05-29T03:57:39;8.93;;;4.22;;
27863;SDS011;15980;51.092;13.916;2023-05-29T04:07:41;8.25;;;4.05;;
27863;SDS011;15980;51.092;13.916;2023-05-29T04:17:41;9.07;;;4.43;;
27863;SDS011;15980;51.092;13.916;2023-05-29T04:27:42;9.90;;;4.93;;
27863;SDS011;15980;51.092;13.916;2023-05-29T04:37:42;7.93;;;4.63;;
27863;SDS011;15980;51.092;13.916;2023-05-29T04:47:42;11.35;;;5.00;;
27863;SDS011;15980;51.092;13.916;2023-05-29T04:57:42;12.82;;;4.97;;
27863;SDS011;15980;51.092;13.916;2023-05-29T05:07:43;7.90;;;4.47;;
27863;SDS011;15980;51.092;13.916;2023-05-29T05:17:43;12.20;;;4.60;;
27863;SDS011;15980;51.092;13.916;2023-05-29T05:27:43;8.48;;;4.60;;
27863;SDS011;15980;51.092;13.916;2023-05-29T05:37:43;9.57;;;4.65;;
27863;SDS011;15980;51.092;13.916;2023-05-29T05:47:44;8.43;;;4.45;;
27863;SDS011;15980;51.092;13.916;2023-05-29T05:57:45;8.00;;;3.90;;
27863;SDS011;15980;51.092;13.916;2023-05-29T06:07:46;7.05;;;3.85;;
27863;SDS011;15980;51.092;13.916;2023-05-29T06:17:46;8.48;;;4.15;;
27863;SDS011;15980;51.092;13.916;2023-05-29T06:27:46;9.70;;;3.75;;
27863;SDS011;15980;51.092;13.916;2023-05-29T06:37:46;7.20;;;3.17;;
27863;SDS011;15980;51.092;13.916;2023-05-29T06:47:47;7.28;;;3.35;;
27863;SDS011;15980;51.092;13.916;2023-05-29T06:57:47;7.43;;;3.00;;
27863;SDS011;15980;51.092;13.916;2023-05-29T07:07:47;7.60;;;3.20;;
27863;SDS011;15980;51.092;13.916;2023-05-29T07:17:48;8.18;;;3.10;;
27863;SDS011;15980;51.092;13.916;2023-05-29T07:27:48;4.45;;;2.72;;
27863;SDS011;15980;51.092;13.916;2023-05-29T07:37:48;5.97;;;2.67;;
27863;SDS011;15980;51.092;13.916;2023-05-29T07:47:48;8.60;;;3.40;;
27863;SDS011;15980;51.092;13.916;2023-05-29T07:57:49;7.82;;;2.88;;
27863;SDS011;15980;51.092;13.916;2023-05-29T08:07:49;6.72;;;3.00;;
27863;SDS011;15980;51.092;13.916;2023-05-29T08:17:49;7.60;;;3.20;;
27863;SDS011;15980;51.092;13.916;2023-05-29T08:27:50;7.70;;;2.97;;
27863;SDS011;15980;51.092;13.916;2023-05-29T08:37:50;9.57;;;3.10;;
27863;SDS011;15980;51.092;13.916;2023-05-29T08:47:51;5.25;;;2.85;;
27863;SDS011;15980;51.092;13.916;2023-05-29T08:57:52;4.38;;;2.53;;
27863;SDS011;15980;51.092;13.916;2023-05-29T09:07:53;4.18;;;2.28;;
27863;SDS011;15980;51.092;13.916;2023-05-29T09:17:54;9.02;;;2.10;;
27863;SDS011;15980;51.092;13.916;2023-05-29T09:28:03;7.07;;;1.98;;
27863;SDS011;15980;51.092;13.916;2023-05-29T09:38:08;6.15;;;2.13;;
27863;SDS011;15980;51.092;13.916;2023-05-29T09:48:13;7.22;;;2.47;;
27863;SDS011;15980;51.092;13.916;2023-05-29T09:58:15;4.00;;;2.30;;
27863;SDS011;15980;51.092;13.916;2023-05-29T10:08:16;6.10;;;2.38;;
27863;SDS011;15980;51.092;13.916;2023-05-29T10:18:20;5.43;;;2.40;;
27863;SDS011;15980;51.092;13.916;2023-05-29T10:28:23;6.85;;;2.13;;
27863;SDS011;15980;51.092;13.916;2023-05-29T10:38:24;6.07;;;3.15;;
27863;SDS011;15980;51.092;13.916;2023-05-29T10:58:25;6.38;;;2.92;;
27863;SDS011;15980;51.092;13.916;2023-05-29T11:08:45;7.00;;;2.80;;
27863;SDS011;15980;51.092;13.916;2023-05-29T11:18:46;4.55;;;2.58;;
27863;SDS011;15980;51.092;13.916;2023-05-29T11:28:48;3.55;;;2.38;;
27863;SDS011;15980;51.092;13.916;2023-05-29T11:38:48;6.03;;;2.65;;
27863;SDS011;15980;51.092;13.916;2023-05-29T11:48:51;6.28;;;2.30;;
27863;SDS011;15980;51.092;13.916;2023-05-29T11:58:52;7.43;;;2.90;;
27863;SDS011;15980;51.092;13.916;2023-05-29T12:08:53;3.97;;;2.40;;
27863;SDS011;15980;51.092;13.916;2023-05-29T12:18:54;4.25;;;2.35;;
27863;SDS011;15980;51.092;13.916;2023-05-29T12:28:54;7.13;;;2.92;;
27863;SDS011;15980;51.092;13.916;2023-05-29T12:38:54;5.18;;;2.67;;
27863;SDS011;15980;51.092;13.916;2023-05-29T12:48:55;6.47;;;2.65;;
27863;SDS011;15980;51.092;13.916;2023-05-29T12:58:56;8.70;;;2.63;;
27863;SDS011;15980;51.092;13.916;2023-05-29T13:08:56;6.13;;;2.83;;
27863;SDS011;15980;51.092;13.916;2023-05-29T13:18:56;5.38;;;2.97;;
27863;SDS011;15980;51.092;13.916;2023-05-29T13:28:56;13.88;;;3.28;;
27863;SDS011;15980;51.092;13.916;2023-05-29T13:38:57;4.40;;;2.50;;
27863;SDS011;15980;51.092;13.916;2023-05-29T13:48:57;6.47;;;3.00;;
27863;SDS011;15980;51.092;13.916;2023-05-29T13:58:57;6.20;;;3.15;;
27863;SDS011;15980;51.092;13.916;2023-05-29T14:08:58;5.70;;;3.10;;
27863;SDS011;15980;51.092;13.916;2023-05-29T14:18:58;5.80;;;2.97;;
27863;SDS011;15980;51.092;13.916;2023-05-29T14:28:59;7.13;;;3.40;;
27863;SDS011;15980;51.092;13.916;2023-05-29T14:38:59;9.65;;;4.47;;
27863;SDS011;15980;51.092;13.916;2023-05-29T14:49:00;4.63;;;2.67;;
27863;SDS011;15980;51.092;13.916;2023-05-29T14:59:00;7.50;;;3.00;;
27863;SDS011;15980;51.092;13.916;2023-05-29T15:09:01;6.35;;;2.83;;
27863;SDS011;15980;51.092;13.916;2023-05-29T15:19:01;11.52;;;3.10;;
27863;SDS011;15980;51.092;13.916;2023-05-29T15:29:01;7.90;;;3.33;;
27863;SDS011;15980;51.092;13.916;2023-05-29T15:39:02;5.43;;;2.67;;
27863;SDS011;15980;51.092;13.916;2023-05-29T15:49:03;4.60;;;2.80;;
27863;SDS011;15980;51.092;13.916;2023-05-29T15:59:03;7.20;;;2.92;;
27863;SDS011;15980;51.092;13.916;2023-05-29T16:09:03;4.20;;;2.65;;
27863;SDS011;15980;51.092;13.916;2023-05-29T16:19:04;7.57;;;4.35;;
27863;SDS011;15980;51.092;13.916;2023-05-29T16:29:04;7.45;;;3.20;;
27863;SDS011;15980;51.092;13.916;2023-05-29T16:39:05;9.07;;;3.33;;
27863;SDS011;15980;51.092;13.916;2023-05-29T16:49:05;10.00;;;3.10;;
27863;SDS011;15980;51.092;13.916;2023-05-29T16:59:05;7.85;;;3.05;;
27863;SDS011;15980;51.092;13.916;2023-05-29T17:09:06;5.45;;;3.28;;
27863;SDS011;15980;51.092;13.916;2023-05-29T17:19:06;5.07;;;3.15;;
27863;SDS011;15980;51.092;13.916;2023-05-29T17:29:06;7.72;;;3.17;;
27863;SDS011;15980;51.092;13.916;2023-05-29T17:39:07;6.10;;;3.00;;
27863;SDS011;15980;51.092;13.916;2023-05-29T17:49:07;6.93;;;3.40;;
27863;SDS011;15980;51.092;13.916;2023-05-29T17:59:07;6.65;;;2.65;;
27863;SDS011;15980;51.092;13.916;2023-05-29T18:09:08;5.22;;;2.90;;
27863;SDS011;15980;51.092;13.916;2023-05-29T18:19:08;8.05;;;3.38;;
27863;SDS011;15980;51.092;13.916;2023-05-29T18:29:08;8.02;;;3.35;;
27863;SDS011;15980;51.092;13.916;2023-05-29T18:39:08;6.70;;;3.10;;
27863;SDS011;15980;51.092;13.916;2023-05-29T18:49:09;4.95;;;3.03;;
27863;SDS011;15980;51.092;13.916;2023-05-29T18:59:09;5.93;;;2.78;;
27863;SDS011;15980;51.092;13.916;2023-05-29T19:09:09;8.77;;;3.60;;
27863;SDS011;15980;51.092;13.916;2023-05-29T19:19:10;6.78;;;2.80;;
27863;SDS011;15980;51.092;13.916;2023-05-29T19:29:10;4.72;;;3.03;;
27863;SDS011;15980;51.092;13.916;2023-05-29T19:39:10;8.45;;;3.17;;
27863;SDS011;15980;51.092;13.916;2023-05-29T19:49:11;5.82;;;2.70;;
27863;SDS011;15980;51.092;13.916;2023-05-29T19:59:11;9.90;;;3.72;;
27863;SDS011;15980;51.092;13.916;2023-05-29T20:09:11;7.45;;;2.92;;
27863;SDS011;15980;51.092;13.916;2023-05-29T20:19:11;6.22;;;3.63;;
27863;SDS011;15980;51.092;13.916;2023-05-29T20:29:12;8.20;;;3.20;;
27863;SDS011;15980;51.092;13.916;2023-05-29T20:39:12;6.50;;;3.50;;
27863;SDS011;15980;51.092;13.916;2023-05-29T20:49:13;7.40;;;3.38;;
27863;SDS011;15980;51.092;13.916;2023-05-29T20:59:13;8.65;;;3.65;;
27863;SDS011;15980;51.092;13.916;2023-05-29T21:09:13;6.07;;;3.28;;
27863;SDS011;15980;51.092;13.916;2023-05-29T21:19:14;9.18;;;3.92;;
27863;SDS011;15980;51.092;13.916;2023-05-29T21:29:14;8.57;;;3.83;;
27863;SDS011;15980;51.092;13.916;2023-05-29T21:39:14;7.78;;;4.07;;
27863;SDS011;15980;51.092;13.916;2023-05-29T21:49:15;7.78;;;3.53;;
27863;SDS011;15980;51.092;13.916;2023-05-29T21:59:15;7.45;;;3.22;;
27863;SDS011;15980;51.092;13.916;2023-05-29T22:09:15;7.47;;;3.33;;
27863;SDS011;15980;51.092;13.916;2023-05-29T22:19:16;6.85;;;2.88;;
27863;SDS011;15980;51.092;13.916;2023-05-29T22:29:16;6.85;;;3.20;;
27863;SDS011;15980;51.092;13.916;2023-05-29T22:39:19;6.13;;;3.15;;
27863;SDS011;15980;51.092;13.916;2023-05-29T22:49:20;6.28;;;3.03;;
27863;SDS011;15980;51.092;13.916;2023-05-29T22:59:20;8.30;;;2.90;;
27863;SDS011;15980;51.092;13.916;2023-05-29T23:09:20;8.43;;;3.05;;
27863;SDS011;15980;51.092;13.916;2023-05-29T23:19:21;9.80;;;2.92;;
27863;SDS011;15980;51.092;13.916;2023-05-29T23:29:21;7.55;;;3.30;;
27863;SDS011;15980;51.092;13.916;2023-05-29T23:39:21;9.02;;;3.00;;
27863;SDS011;15980;51.092;13.916;2023-05-29T23:49:21;8.73;;;3.33;;
27863;SDS011;15980;51.092;13.916;2023-05-29T23:59:22;9.23;;;3.20;;
